Time;durP1;ratioP1;P1;durP2;ratioP2;P2;SDS_P1;SDS_P2;PMS_P1;PMS_P2;Temp;Humidity;BMP_temperature;BMP_pressure;BME280_temperature;BME280_humidity;BME280_pressure;Samples;Min_cycle;Max_cycle;Signal;HPM_P1;HPM_P2
2023/06/09 00:01:55;;;;;;;31.65;17.70;;;27.40;99.90;;;;;;5035165;28;20029;-72
2023/06/09 00:04:23;;;;;;;37.22;18.23;;;27.70;99.90;;;;;;5034858;28;20025;-71
2023/06/09 00:06:52;;;;;;;42.05;20.48;;;27.50;99.90;;;;;;5035172;28;20040;-72
2023/06/09 00:09:20;;;;;;;31.83;17.52;;;27.60;99.90;;;;;;5027900;28;20034;-72
2023/06/09 00:11:48;;;;;;;30.05;18.25;;;27.70;99.90;;;;;;5014855;28;20061;-71
2023/06/09 00:14:15;;;;;;;30.17;18.77;;;27.50;99.90;;;;;;5015098;28;20033;-71
2023/06/09 00:16:46;;;;;;;30.70;18.58;;;27.60;99.90;;;;;;5014821;28;20067;-71
2023/06/09 00:19:15;;;;;;;32.65;18.85;;;27.50;99.90;;;;;;5014837;28;20053;-70
2023/06/09 00:21:49;;;;;;;30.73;19.60;;;27.60;99.90;;;;;;5014687;28;20433;-72
2023/06/09 00:24:20;;;;;;;121.00;85.00;;;27.70;99.90;;;;;;5014758;28;20030;-72
2023/06/09 00:26:48;;;;;;;79.97;50.55;;;27.60;99.90;;;;;;5014603;28;20025;-72
2023/06/09 00:29:17;;;;;;;82.03;52.63;;;27.70;99.90;;;;;;5014781;28;20531;-71
2023/06/09 00:31:44;;;;;;;59.80;39.88;;;27.80;99.90;;;;;;5014383;28;20100;-71
2023/06/09 00:34:12;;;;;;;46.03;27.25;;;27.90;99.90;;;;;;5014404;28;20352;-72
2023/06/09 00:36:38;;;;;;;38.75;25.80;;;27.90;99.90;;;;;;5014604;28;20025;-71
2023/06/09 00:39:05;;;;;;;87.57;59.53;;;27.90;99.90;;;;;;5014422;28;20028;-71
2023/06/09 00:41:36;;;;;;;113.65;75.47;;;28.00;99.90;;;;;;5014513;28;20424;-69
2023/06/09 00:44:04;;;;;;;131.85;81.10;;;28.20;99.90;;;;;;5014401;28;20391;-67
2023/06/09 00:46:31;;;;;;;74.28;45.85;;;28.20;99.90;;;;;;5014223;28;20026;-66
2023/06/09 00:48:58;;;;;;;132.50;81.05;;;28.20;99.90;;;;;;5014097;28;20053;-67
2023/06/09 00:51:25;;;;;;;43.33;28.13;;;28.30;99.90;;;;;;5013678;28;20105;-65
2023/06/09 00:53:52;;;;;;;30.13;18.13;;;28.40;99.90;;;;;;5014151;28;20026;-71
2023/06/09 00:56:23;;;;;;;26.48;15.52;;;28.40;99.90;;;;;;5013441;28;20014;-71
2023/06/09 00:58:50;;;;;;;30.95;18.65;;;28.50;99.90;;;;;;5013979;28;20029;-71
2023/06/09 01:01:17;;;;;;;32.28;18.77;;;28.40;99.90;;;;;;5014021;28;20028;-71
2023/06/09 01:03:46;;;;;;;40.67;23.08;;;28.40;99.90;;;;;;5013851;28;20060;-71
2023/06/09 01:06:38;;;;;;;34.22;18.65;;;28.40;99.90;;;;;;5013859;28;20037;-71
2023/06/09 01:09:13;;;;;;;33.33;18.98;;;28.50;99.90;;;;;;5013241;28;20088;-71
2023/06/09 01:11:46;;;;;;;30.67;17.95;;;28.50;99.90;;;;;;5014060;28;20041;-71
2023/06/09 01:14:27;;;;;;;33.42;18.92;;;28.60;99.90;;;;;;5013670;28;20476;-71
2023/06/09 01:17:18;;;;;;;28.58;18.38;;;28.70;99.90;;;;;;5013814;28;20030;-71
2023/06/09 01:19:48;;;;;;;31.70;18.58;;;28.70;99.90;;;;;;5013701;28;20030;-72
2023/06/09 01:22:16;;;;;;;35.30;18.92;;;28.70;99.90;;;;;;5013753;28;20084;-71
2023/06/09 01:25:08;;;;;;;38.35;21.08;;;28.70;99.90;;;;;;5013557;28;20053;-71
2023/06/09 01:27:36;;;;;;;30.33;14.17;;;28.70;99.90;;;;;;5005155;28;20107;-71
2023/06/09 01:30:05;;;;;;;23.52;14.30;;;28.50;99.90;;;;;;5013316;28;20049;-71
2023/06/09 01:32:33;;;;;;;26.60;14.57;;;28.60;99.90;;;;;;5013152;28;20045;-70
2023/06/09 01:34:59;;;;;;;24.30;14.85;;;28.70;99.90;;;;;;5013565;28;20022;-70
2023/06/09 01:37:26;;;;;;;27.95;16.27;;;28.80;99.90;;;;;;5013307;28;20068;-70
2023/06/09 01:39:54;;;;;;;27.80;15.23;;;28.80;99.90;;;;;;5013463;28;20097;-71
2023/06/09 01:42:20;;;;;;;31.92;14.38;;;28.80;99.90;;;;;;5013597;28;20105;-70
2023/06/09 01:44:47;;;;;;;22.98;13.38;;;29.00;99.90;;;;;;5012026;28;20376;-71
2023/06/09 01:47:15;;;;;;;24.88;13.43;;;28.90;99.90;;;;;;5013545;28;20040;-70
2023/06/09 01:49:55;;;;;;;20.58;13.55;;;29.00;99.90;;;;;;5013396;28;20486;-70
2023/06/09 01:52:33;;;;;;;25.05;13.50;;;28.80;99.90;;;;;;5012970;28;20072;-70
2023/06/09 01:55:08;;;;;;;22.90;13.35;;;28.90;99.90;;;;;;5013362;28;20084;-71
2023/06/09 01:57:44;;;;;;;32.92;18.17;;;29.10;99.90;;;;;;5013315;28;20091;-72
2023/06/09 02:00:12;;;;;;;32.38;17.90;;;29.00;99.90;;;;;;5013304;28;20057;-72
2023/06/09 02:02:40;;;;;;;23.85;15.82;;;28.90;99.90;;;;;;5013217;28;20112;-72
2023/06/09 02:05:08;;;;;;;31.70;18.92;;;29.10;99.90;;;;;;5012021;28;20430;-72
2023/06/09 02:07:35;;;;;;;31.60;19.15;;;29.20;99.90;;;;;;5013873;28;20046;-72
2023/06/09 02:10:03;;;;;;;27.30;15.13;;;29.20;99.90;;;;;;5016972;28;20475;-71
2023/06/09 02:12:32;;;;;;;30.35;19.40;;;29.20;99.90;;;;;;5016991;28;20121;-71
2023/06/09 02:14:59;;;;;;;26.13;16.83;;;29.20;99.90;;;;;;5016588;28;20030;-72
2023/06/09 02:17:27;;;;;;;23.17;14.98;;;29.20;99.90;;;;;;5016824;28;20030;-71
2023/06/09 02:19:55;;;;;;;23.38;14.77;;;29.20;99.90;;;;;;5017018;28;20072;-72
2023/06/09 02:22:21;;;;;;;33.08;17.27;;;29.20;99.90;;;;;;5030057;28;20036;-71
2023/06/09 02:24:48;;;;;;;31.45;15.00;;;29.30;99.90;;;;;;5031625;28;20053;-72
2023/06/09 02:27:15;;;;;;;16.23;11.23;;;29.40;99.90;;;;;;5025442;28;20099;-72
2023/06/09 02:29:41;;;;;;;62.13;41.67;;;29.40;99.90;;;;;;5016636;28;20029;-72
2023/06/09 02:32:08;;;;;;;39.67;25.65;;;29.40;99.90;;;;;;5016454;28;20375;-72
2023/06/09 02:34:37;;;;;;;30.02;16.83;;;29.40;99.90;;;;;;5016704;28;20033;-72
2023/06/09 02:37:07;;;;;;;25.17;15.52;;;29.50;99.90;;;;;;5016672;28;20025;-68
2023/06/09 02:39:34;;;;;;;30.13;17.25;;;29.40;99.90;;;;;;5016398;28;20368;-68
2023/06/09 02:42:01;;;;;;;30.30;15.02;;;29.60;99.90;;;;;;5016878;28;20418;-74
2023/06/09 02:44:31;;;;;;;26.00;14.23;;;29.70;99.90;;;;;;5016557;28;20022;-70
2023/06/09 02:46:59;;;;;;;22.27;11.68;;;29.70;99.90;;;;;;5016388;28;20056;-71
2023/06/09 02:49:26;;;;;;;21.13;11.52;;;29.70;99.90;;;;;;5016055;28;20026;-72
2023/06/09 02:51:53;;;;;;;19.85;13.25;;;29.60;99.90;;;;;;5016284;28;20028;-72
2023/06/09 02:54:20;;;;;;;31.40;15.73;;;29.70;99.90;;;;;;5016127;28;20036;-72
2023/06/09 02:56:47;;;;;;;26.23;16.20;;;29.90;99.90;;;;;;5016337;28;20029;-71
2023/06/09 02:59:14;;;;;;;22.95;12.23;;;29.80;99.90;;;;;;5018719;28;20525;-71
2023/06/09 03:01:42;;;;;;;20.85;12.10;;;30.00;99.90;;;;;;5024317;28;20386;-72
2023/06/09 03:04:09;;;;;;;24.33;12.40;;;29.90;99.90;;;;;;5016039;28;20025;-71
2023/06/09 03:06:37;;;;;;;20.45;12.30;;;30.00;99.90;;;;;;5014861;28;20026;-71
2023/06/09 03:09:04;;;;;;;23.33;12.63;;;30.00;99.90;;;;;;5015999;28;20033;-70
2023/06/09 03:11:31;;;;;;;21.92;13.52;;;30.20;99.90;;;;;;5016267;28;20026;-72
2023/06/09 03:13:57;;;;;;;22.92;13.45;;;30.00;99.90;;;;;;5016057;28;20018;-70
2023/06/09 03:16:25;;;;;;;20.35;12.65;;;30.10;99.90;;;;;;5015764;28;20014;-71
2023/06/09 03:18:51;;;;;;;21.08;12.05;;;30.00;99.90;;;;;;5015381;28;20081;-71
2023/06/09 03:21:23;;;;;;;21.45;12.25;;;30.10;99.90;;;;;;5015288;28;20026;-71
2023/06/09 03:23:50;;;;;;;37.58;13.98;;;30.10;99.90;;;;;;5015683;28;20021;-71
2023/06/09 03:26:17;;;;;;;24.67;14.02;;;30.10;99.90;;;;;;5015730;28;20113;-72
2023/06/09 03:28:44;;;;;;;23.48;14.20;;;30.20;99.90;;;;;;5015878;28;20025;-68
2023/06/09 03:31:13;;;;;;;39.38;24.77;;;30.20;99.90;;;;;;5015296;28;20041;-72
2023/06/09 03:33:40;;;;;;;23.50;12.98;;;30.20;99.90;;;;;;5026584;28;20034;-72
2023/06/09 03:36:08;;;;;;;17.13;10.82;;;30.40;99.90;;;;;;5015608;28;20021;-75
2023/06/09 03:38:35;;;;;;;24.45;13.65;;;30.40;99.90;;;;;;5015375;28;20033;-75
2023/06/09 03:41:03;;;;;;;16.52;9.45;;;30.30;99.90;;;;;;5015528;28;20029;-70
2023/06/09 03:43:30;;;;;;;17.05;7.88;;;30.30;99.90;;;;;;5015341;28;20084;-74
2023/06/09 03:45:57;;;;;;;17.15;8.45;;;30.30;99.90;;;;;;5015520;28;20033;-71
2023/06/09 03:48:23;;;;;;;12.23;8.98;;;30.40;99.90;;;;;;5019176;28;20028;-71
2023/06/09 03:50:50;;;;;;;27.00;13.38;;;30.30;99.90;;;;;;5035035;28;20021;-70
2023/06/09 03:53:17;;;;;;;24.30;12.98;;;30.30;99.90;;;;;;5035253;28;20021;-72
2023/06/09 03:55:44;;;;;;;20.60;9.52;;;30.40;99.90;;;;;;5035334;28;20152;-72
2023/06/09 03:58:12;;;;;;;14.32;6.75;;;30.30;99.90;;;;;;5035047;28;20013;-72
2023/06/09 04:00:39;;;;;;;16.83;7.13;;;30.40;99.90;;;;;;5034705;28;20371;-71
2023/06/09 04:03:07;;;;;;;19.38;8.23;;;30.50;99.90;;;;;;5034767;28;20021;-74
2023/06/09 04:05:34;;;;;;;12.73;7.68;;;30.50;99.90;;;;;;5034830;28;20017;-69
2023/06/09 04:08:00;;;;;;;16.13;8.43;;;30.60;99.90;;;;;;5035690;28;20029;-70
2023/06/09 04:10:27;;;;;;;12.68;7.75;;;30.80;99.90;;;;;;5034771;28;20018;-70
2023/06/09 04:12:54;;;;;;;13.98;7.70;;;30.90;99.90;;;;;;5034948;28;20067;-70
2023/06/09 04:15:20;;;;;;;19.60;7.57;;;30.90;99.90;;;;;;5034501;28;20017;-72
2023/06/09 04:17:47;;;;;;;17.73;9.52;;;30.80;99.90;;;;;;5034614;28;20026;-73
2023/06/09 04:20:14;;;;;;;19.17;10.25;;;30.90;99.90;;;;;;5033216;28;20021;-74
2023/06/09 04:22:46;;;;;;;15.32;8.98;;;30.90;99.90;;;;;;5034262;28;20030;-74
2023/06/09 04:25:13;;;;;;;19.58;9.98;;;31.00;99.90;;;;;;5034600;28;20029;-70
2023/06/09 04:27:41;;;;;;;17.48;9.40;;;31.00;99.90;;;;;;5034398;28;20109;-70
2023/06/09 04:30:10;;;;;;;20.23;8.95;;;30.90;99.90;;;;;;5034131;28;20052;-75
2023/06/09 04:32:37;;;;;;;19.77;8.05;;;31.00;99.90;;;;;;5033423;28;20022;-73
2023/06/09 04:35:04;;;;;;;16.30;8.48;;;31.10;99.90;;;;;;5034179;28;20382;-72
2023/06/09 04:37:31;;;;;;;12.88;5.93;;;31.20;99.90;;;;;;5034300;28;20381;-70
2023/06/09 04:39:58;;;;;;;9.48;6.05;;;31.20;99.90;;;;;;5034074;28;20024;-73
2023/06/09 04:42:25;;;;;;;13.20;6.57;;;31.40;99.90;;;;;;5034335;28;20029;-74
2023/06/09 04:44:53;;;;;;;14.48;6.93;;;31.50;99.90;;;;;;5034065;28;20386;-74
2023/06/09 04:47:20;;;;;;;18.92;8.95;;;31.60;99.90;;;;;;5034069;28;20367;-72
2023/06/09 04:49:49;;;;;;;19.40;11.15;;;31.60;99.90;;;;;;5033940;28;20018;-72
2023/06/09 04:52:17;;;;;;;18.25;10.50;;;31.60;99.90;;;;;;5032186;28;20037;-72
2023/06/09 04:54:49;;;;;;;33.42;14.43;;;31.60;99.90;;;;;;5024816;28;20022;-74
2023/06/09 04:57:17;;;;;;;28.67;15.10;;;31.60;99.90;;;;;;5023259;28;20470;-73
2023/06/09 04:59:45;;;;;;;24.25;13.65;;;31.50;99.90;;;;;;5021727;28;20088;-71
2023/06/09 05:02:12;;;;;;;19.00;9.32;;;31.50;99.90;;;;;;5024154;28;20060;-72
2023/06/09 05:04:40;;;;;;;15.40;8.32;;;31.50;99.90;;;;;;5032834;28;20475;-71
2023/06/09 05:07:07;;;;;;;21.67;9.45;;;31.50;99.90;;;;;;5034009;28;20029;-70
2023/06/09 05:09:34;;;;;;;26.00;11.40;;;31.50;99.90;;;;;;5032225;28;20467;-71
2023/06/09 05:12:01;;;;;;;17.73;9.60;;;31.50;99.90;;;;;;5034819;28;20386;-69
2023/06/09 05:14:27;;;;;;;16.42;7.78;;;31.40;99.90;;;;;;5030999;28;20112;-66
2023/06/09 05:16:54;;;;;;;12.00;5.35;;;31.40;99.90;;;;;;5032507;28;20120;-67
2023/06/09 05:19:21;;;;;;;13.70;5.95;;;31.40;99.90;;;;;;5032874;28;20041;-70
2023/06/09 05:21:48;;;;;;;10.02;5.70;;;31.40;99.90;;;;;;5029013;28;20026;-68
2023/06/09 05:24:15;;;;;;;21.48;6.53;;;31.40;99.90;;;;;;5029060;28;20029;-69
2023/06/09 05:26:42;;;;;;;13.88;6.00;;;31.50;99.90;;;;;;5033639;28;20026;-68
2023/06/09 05:29:09;;;;;;;11.70;6.45;;;31.50;99.90;;;;;;5033076;28;20485;-69
2023/06/09 05:31:36;;;;;;;11.25;5.72;;;31.50;99.90;;;;;;5032834;28;20391;-67
2023/06/09 05:34:02;;;;;;;18.73;7.40;;;31.60;99.90;;;;;;5033992;28;20017;-70
2023/06/09 05:36:29;;;;;;;12.30;6.50;;;31.60;99.90;;;;;;5033411;28;20289;-68
2023/06/09 05:38:56;;;;;;;12.10;6.03;;;31.50;99.90;;;;;;5033311;28;20104;-67
2023/06/09 05:41:23;;;;;;;10.95;5.70;;;31.50;99.90;;;;;;5033799;28;20017;-70
2023/06/09 05:43:49;;;;;;;15.32;7.63;;;31.40;99.90;;;;;;5033758;28;20112;-68
2023/06/09 05:46:16;;;;;;;23.80;11.68;;;31.40;99.90;;;;;;5033900;28;20474;-67
2023/06/09 05:48:43;;;;;;;16.92;7.18;;;31.40;99.90;;;;;;5034769;28;20056;-69
2023/06/09 05:51:10;;;;;;;14.60;7.40;;;31.30;99.90;;;;;;5031560;28;20088;-68
2023/06/09 05:53:37;;;;;;;16.02;7.13;;;31.30;99.90;;;;;;5023872;28;20040;-71
2023/06/09 05:56:04;;;;;;;14.55;7.63;;;31.40;99.90;;;;;;5029151;28;20700;-69
2023/06/09 05:58:33;;;;;;;16.17;7.00;;;31.40;99.90;;;;;;5029792;28;20462;-68
2023/06/09 06:01:03;;;;;;;20.42;9.48;;;31.40;99.90;;;;;;5033110;28;20112;-70
2023/06/09 06:03:32;;;;;;;16.00;7.43;;;31.40;99.90;;;;;;5032943;28;20089;-69
2023/06/09 06:05:59;;;;;;;16.38;7.00;;;31.40;99.90;;;;;;5032795;28;20047;-68
2023/06/09 06:08:26;;;;;;;14.35;6.00;;;31.50;99.90;;;;;;5032966;28;20044;-69
2023/06/09 06:10:53;;;;;;;10.43;4.90;;;31.50;99.90;;;;;;5032970;28;20466;-68
2023/06/09 06:13:20;;;;;;;11.63;5.80;;;31.60;99.90;;;;;;5033293;28;20025;-68
2023/06/09 06:15:46;;;;;;;14.27;6.03;;;31.60;99.90;;;;;;5032291;28;20470;-67
2023/06/09 06:18:14;;;;;;;11.32;6.35;;;31.70;99.90;;;;;;5032192;28;20022;-69
2023/06/09 06:20:40;;;;;;;10.35;4.82;;;31.80;99.90;;;;;;5031942;28;20045;-70
2023/06/09 06:23:08;;;;;;;10.77;5.35;;;31.90;99.90;;;;;;5024858;28;20596;-69
2023/06/09 06:25:37;;;;;;;11.57;4.43;;;32.10;99.90;;;;;;5019029;28;20026;-71
2023/06/09 06:28:04;;;;;;;8.88;4.35;;;32.10;99.90;;;;;;5015535;28;20050;-70
2023/06/09 06:30:33;;;;;;;9.43;5.28;;;32.20;99.90;;;;;;5025862;28;20113;-69
2023/06/09 06:33:00;;;;;;;9.00;4.05;;;32.20;99.90;;;;;;5030973;28;20026;-69
2023/06/09 06:35:28;;;;;;;10.55;4.15;;;32.30;99.90;;;;;;5033935;28;20454;-70
2023/06/09 06:37:56;;;;;;;13.23;4.47;;;32.30;99.90;;;;;;5030310;28;20170;-71
2023/06/09 06:40:24;;;;;;;6.57;4.00;;;32.30;99.90;;;;;;5028176;28;20029;-69
2023/06/09 06:42:51;;;;;;;8.73;4.68;;;32.40;99.90;;;;;;5033157;28;20030;-70
2023/06/09 06:45:19;;;;;;;13.23;4.70;;;32.40;99.90;;;;;;5034061;28;20287;-71
2023/06/09 06:47:45;;;;;;;8.55;4.20;;;32.50;99.90;;;;;;5032499;28;20104;-68
2023/06/09 06:50:13;;;;;;;7.35;4.00;;;32.50;99.90;;;;;;5032431;28;20025;-71
2023/06/09 06:52:40;;;;;;;7.47;5.40;;;32.50;99.90;;;;;;5026902;28;20030;-71
2023/06/09 06:55:08;;;;;;;7.43;4.45;;;32.50;99.90;;;;;;5033024;28;20013;-68
2023/06/09 06:57:35;;;;;;;6.88;4.07;;;32.60;99.90;;;;;;5035942;28;20471;-73
2023/06/09 07:02:32;;;;;;;12.18;6.03;;;32.60;99.90;;;;;;5033701;28;20025;-75
2023/06/09 07:04:59;;;;;;;7.75;4.53;;;32.60;99.90;;;;;;5035554;28;20026;-71
2023/06/09 07:07:26;;;;;;;8.25;4.45;;;32.60;99.90;;;;;;5033523;28;20033;-71
2023/06/09 07:09:53;;;;;;;8.02;4.78;;;32.60;99.90;;;;;;5033351;28;20475;-71
2023/06/09 07:12:21;;;;;;;10.40;4.80;;;32.60;99.90;;;;;;5035401;28;20033;-70
2023/06/09 07:14:48;;;;;;;11.00;5.55;;;32.60;99.90;;;;;;5035620;28;20096;-67
2023/06/09 07:17:15;;;;;;;8.07;5.40;;;32.60;99.90;;;;;;5035111;28;20104;-74
2023/06/09 07:19:41;;;;;;;16.10;6.43;;;32.60;99.90;;;;;;5035163;28;20479;-70
2023/06/09 07:22:10;;;;;;;17.33;5.88;;;32.60;99.90;;;;;;5034756;28;20021;-71
2023/06/09 07:24:36;;;;;;;16.88;8.07;;;32.60;99.90;;;;;;5031484;28;20108;-72
2023/06/09 07:27:03;;;;;;;12.93;7.65;;;32.60;99.90;;;;;;5034130;28;20017;-70
2023/06/09 07:29:30;;;;;;;15.40;9.27;;;32.60;99.90;;;;;;5035323;28;20026;-71
2023/06/09 07:31:57;;;;;;;13.98;5.75;;;32.50;99.90;;;;;;5029308;28;20040;-68
2023/06/09 07:34:27;;;;;;;13.57;5.97;;;32.50;99.90;;;;;;5038993;28;20028;-71
2023/06/09 07:36:56;;;;;;;17.45;5.60;;;32.40;99.90;;;;;;5035881;28;20071;-72
2023/06/09 07:39:23;;;;;;;14.80;5.85;;;32.40;99.90;;;;;;5033278;28;20044;-74
2023/06/09 07:41:50;;;;;;;10.50;5.63;;;32.40;99.90;;;;;;5035093;28;20075;-70
2023/06/09 07:44:17;;;;;;;14.50;7.80;;;32.40;99.90;;;;;;5035092;28;20049;-70
2023/06/09 07:46:43;;;;;;;13.35;7.50;;;32.30;99.90;;;;;;5033657;28;20072;-69
2023/06/09 07:49:10;;;;;;;12.68;6.82;;;32.30;99.90;;;;;;5030173;28;20474;-71
2023/06/09 07:51:37;;;;;;;17.17;6.65;;;32.30;99.90;;;;;;5020604;28;20026;-71
2023/06/09 07:54:06;;;;;;;11.43;6.05;;;32.20;99.90;;;;;;5014941;28;20025;-70
2023/06/09 07:56:34;;;;;;;11.52;6.53;;;32.20;99.90;;;;;;5029147;28;20033;-71
2023/06/09 07:59:00;;;;;;;16.05;7.10;;;32.20;99.90;;;;;;5032557;28;20017;-67
2023/06/09 08:01:27;;;;;;;17.88;7.00;;;32.10;99.90;;;;;;5035018;28;20068;-68
2023/06/09 08:03:55;;;;;;;20.50;7.90;;;32.10;99.90;;;;;;5035108;28;20045;-70
2023/06/09 08:06:22;;;;;;;18.95;8.43;;;32.10;99.90;;;;;;5032414;28;20022;-69
2023/06/09 08:08:49;;;;;;;16.58;7.15;;;32.10;99.90;;;;;;5034280;28;20039;-70
2023/06/09 08:11:16;;;;;;;16.23;7.65;;;32.10;99.90;;;;;;5034782;28;20036;-70
2023/06/09 08:13:43;;;;;;;21.00;8.90;;;32.20;99.90;;;;;;5035156;28;20013;-67
2023/06/09 08:16:09;;;;;;;19.65;7.20;;;32.30;99.90;;;;;;5034940;28;20473;-69
2023/06/09 08:18:36;;;;;;;13.05;7.70;;;32.40;99.90;;;;;;5035045;28;20108;-67
2023/06/09 08:21:04;;;;;;;15.15;6.75;;;32.50;99.90;;;;;;5034929;28;20017;-70
2023/06/09 08:23:30;;;;;;;16.13;6.68;;;32.50;99.90;;;;;;5034222;28;20356;-70
2023/06/09 08:25:57;;;;;;;16.48;5.90;;;32.50;99.90;;;;;;5032680;28;20026;-68
2023/06/09 08:28:24;;;;;;;18.65;6.68;;;32.50;99.90;;;;;;5033830;28;20021;-71
2023/06/09 08:30:51;;;;;;;16.25;6.60;;;32.40;99.90;;;;;;5057462;22;20336;-66
2023/06/09 08:33:17;;;;;;;16.58;7.07;;;32.40;99.90;;;;;;5043498;28;20080;-69
2023/06/09 08:35:44;;;;;;;19.90;10.45;;;32.40;99.90;;;;;;5048314;28;20013;-71
2023/06/09 08:38:11;;;;;;;17.02;7.82;;;32.40;99.90;;;;;;5046263;28;20013;-68
2023/06/09 08:40:38;;;;;;;17.20;7.53;;;32.40;99.90;;;;;;5019628;28;20029;-69
2023/06/09 08:43:05;;;;;;;25.30;10.07;;;32.40;99.90;;;;;;5017750;28;20396;-70
2023/06/09 08:45:34;;;;;;;23.92;9.40;;;32.40;99.90;;;;;;5016550;28;20021;-69
2023/06/09 08:48:04;;;;;;;19.80;8.38;;;32.40;99.90;;;;;;5016253;28;20014;-69
2023/06/09 08:50:34;;;;;;;14.52;7.28;;;32.40;99.90;;;;;;5016272;28;20382;-70
2023/06/09 08:53:01;;;;;;;12.25;5.95;;;32.40;99.90;;;;;;5016453;28;20026;-71
2023/06/09 08:55:28;;;;;;;15.60;7.20;;;32.40;99.90;;;;;;5021527;28;20558;-68
2023/06/09 08:57:55;;;;;;;17.85;7.90;;;32.30;99.90;;;;;;5029203;28;20029;-73
2023/06/09 09:00:23;;;;;;;16.35;7.60;;;32.30;99.90;;;;;;5033200;28;20033;-72
2023/06/09 09:02:50;;;;;;;20.70;10.27;;;32.20;99.90;;;;;;5033891;28;20390;-71
2023/06/09 09:05:16;;;;;;;16.98;7.90;;;32.30;99.90;;;;;;5033724;28;20025;-71
2023/06/09 09:07:45;;;;;;;22.95;8.35;;;32.20;99.90;;;;;;5033496;28;20025;-71
2023/06/09 09:10:12;;;;;;;16.75;7.80;;;32.20;99.90;;;;;;5033961;28;20459;-72
2023/06/09 09:12:43;;;;;;;39.53;20.83;;;32.20;99.90;;;;;;5033487;28;20034;-72
2023/06/09 09:15:11;;;;;;;25.35;9.98;;;32.20;99.90;;;;;;5033382;28;20024;-72
2023/06/09 09:17:40;;;;;;;21.92;9.32;;;32.20;99.90;;;;;;5033131;28;20109;-72
2023/06/09 09:20:08;;;;;;;25.45;13.60;;;32.20;99.90;;;;;;5033542;28;20490;-71
2023/06/09 09:22:41;;;;;;;15.77;9.63;;;32.20;99.90;;;;;;5026604;28;20533;-72
2023/06/09 09:25:08;;;;;;;20.88;10.18;;;32.20;99.90;;;;;;5023277;28;20032;-71
2023/06/09 09:27:35;;;;;;;16.50;9.60;;;32.20;99.90;;;;;;5021776;28;20025;-71
2023/06/09 09:30:02;;;;;;;17.42;7.95;;;32.20;99.90;;;;;;5023021;28;20025;-71
2023/06/09 09:32:28;;;;;;;17.75;9.75;;;32.10;99.90;;;;;;5023001;28;20069;-71
2023/06/09 09:34:55;;;;;;;13.55;7.93;;;32.00;99.90;;;;;;5021525;28;20025;-71
2023/06/09 09:37:24;;;;;;;13.27;7.45;;;32.00;99.90;;;;;;5022868;28;20014;-70
2023/06/09 09:39:52;;;;;;;24.00;10.25;;;31.90;99.90;;;;;;5023446;28;20030;-70
2023/06/09 09:42:20;;;;;;;26.73;12.88;;;31.80;99.90;;;;;;5023455;28;20536;-71
2023/06/09 09:44:51;;;;;;;27.42;10.68;;;31.90;99.90;;;;;;5022646;28;20076;-71
2023/06/09 09:47:18;;;;;;;22.75;12.32;;;31.80;99.90;;;;;;5021683;28;20028;-70
2023/06/09 09:50:01;;;;;;;15.40;9.40;;;31.80;99.90;;;;;;5022705;28;20132;-73
2023/06/09 09:52:29;;;;;;;14.77;8.00;;;31.80;99.90;;;;;;5022705;28;20025;-71
2023/06/09 09:55:00;;;;;;;24.63;10.55;;;31.80;99.90;;;;;;5024168;28;20076;-71
2023/06/09 09:57:30;;;;;;;21.50;9.82;;;31.80;99.90;;;;;;5033541;28;20088;-71
2023/06/09 10:00:00;;;;;;;24.85;11.20;;;31.80;99.90;;;;;;5034004;28;20427;-71
2023/06/09 10:02:30;;;;;;;23.73;9.93;;;31.70;99.90;;;;;;5033697;28;20037;-70
2023/06/09 10:05:03;;;;;;;16.73;8.80;;;31.60;99.90;;;;;;5054328;22;20057;-71
2023/06/09 10:07:33;;;;;;;27.55;11.15;;;31.70;99.90;;;;;;5033921;28;20060;-72
2023/06/09 10:10:00;;;;;;;21.73;9.93;;;31.70;99.90;;;;;;5033866;28;20041;-71
2023/06/09 10:12:28;;;;;;;25.25;10.50;;;31.70;99.90;;;;;;5033885;28;20363;-71
2023/06/09 10:14:56;;;;;;;45.72;22.52;;;31.60;99.90;;;;;;5033351;28;20026;-72
2023/06/09 10:17:25;;;;;;;48.15;23.58;;;31.60;99.90;;;;;;5034335;28;20443;-71
2023/06/09 10:19:53;;;;;;;32.65;15.48;;;31.60;99.90;;;;;;5034155;28;20029;-71
2023/06/09 10:22:21;;;;;;;24.17;10.63;;;31.60;99.90;;;;;;5033764;28;20021;-71
2023/06/09 10:24:48;;;;;;;23.02;9.27;;;31.50;99.90;;;;;;5033537;28;20024;-70
2023/06/09 10:27:15;;;;;;;21.98;8.65;;;31.40;99.90;;;;;;5063510;22;20084;-72
2023/06/09 10:29:42;;;;;;;19.85;9.52;;;31.40;99.90;;;;;;5054666;28;20083;-71
2023/06/09 10:32:12;;;;;;;21.38;9.52;;;31.30;99.90;;;;;;5057988;28;20021;-71
2023/06/09 10:34:42;;;;;;;19.95;10.50;;;31.30;99.90;;;;;;5057724;28;20025;-71
2023/06/09 10:37:09;;;;;;;24.60;11.90;;;31.20;99.90;;;;;;5057346;28;20021;-71
2023/06/09 10:39:41;;;;;;;38.15;19.38;;;31.20;99.90;;;;;;5057466;28;20025;-71
2023/06/09 10:42:18;;;;;;;55.45;26.20;;;31.20;99.90;;;;;;5057411;28;20104;-70
2023/06/09 10:44:56;;;;;;;70.82;32.92;;;31.20;99.90;;;;;;5057456;28;20029;-71
2023/06/09 10:47:28;;;;;;;75.63;38.05;;;31.10;99.90;;;;;;5056919;28;20385;-71
2023/06/09 10:49:55;;;;;;;53.83;26.63;;;31.10;99.90;;;;;;5057253;28;20021;-71
2023/06/09 10:52:27;;;;;;;39.45;20.95;;;31.10;99.90;;;;;;5056783;28;20025;-71
2023/06/09 10:55:16;;;;;;;52.50;26.38;;;31.10;99.90;;;;;;5057045;28;20532;-72
2023/06/09 10:57:43;;;;;;;36.45;19.75;;;31.10;99.90;;;;;;5074652;22;20069;-70
2023/06/09 11:00:11;;;;;;;56.30;29.13;;;31.10;99.90;;;;;;5056997;28;20035;-70
2023/06/09 11:02:58;;;;;;;59.40;35.83;;;31.10;99.90;;;;;;5056813;28;20031;-71
2023/06/09 11:05:41;;;;;;;54.22;30.17;;;31.10;99.90;;;;;;5055729;28;20071;-72
2023/06/09 11:08:08;;;;;;;39.65;20.33;;;31.00;99.90;;;;;;5056602;28;20029;-69
2023/06/09 11:10:37;;;;;;;27.85;15.27;;;30.90;99.90;;;;;;5056246;28;20099;-71
2023/06/09 11:13:26;;;;;;;36.33;16.08;;;30.90;99.90;;;;;;5055945;28;20040;-71
2023/06/09 11:16:01;;;;;;;26.35;12.77;;;30.80;99.90;;;;;;5055909;28;20045;-71
2023/06/09 11:18:28;;;;;;;30.90;13.27;;;30.90;99.90;;;;;;5076495;22;20144;-71
2023/06/09 11:21:00;;;;;;;22.35;12.18;;;30.70;99.90;;;;;;5055826;28;20052;-71
2023/06/09 11:23:27;;;;;;;34.40;12.30;;;30.80;99.90;;;;;;5055683;28;20099;-71
2023/06/09 11:25:53;;;;;;;27.20;12.90;;;30.80;99.90;;;;;;5055768;28;20116;-71
2023/06/09 11:28:21;;;;;;;28.08;12.85;;;30.70;99.90;;;;;;5055577;28;20021;-71
2023/06/09 11:30:53;;;;;;;22.05;9.95;;;30.70;99.90;;;;;;5055759;28;20108;-72
2023/06/09 11:33:40;;;;;;;21.50;10.70;;;30.60;99.90;;;;;;5055646;28;20020;-70
2023/06/09 11:36:07;;;;;;;40.00;16.05;;;30.60;99.90;;;;;;5055348;28;20021;-70
2023/06/09 11:38:34;;;;;;;32.55;16.75;;;30.60;99.90;;;;;;5055802;28;20096;-71
2023/06/09 11:41:04;;;;;;;35.58;17.67;;;30.50;99.90;;;;;;5055093;28;20025;-70
2023/06/09 11:43:30;;;;;;;30.35;16.10;;;30.60;99.90;;;;;;5055513;28;20048;-71
2023/06/09 11:46:01;;;;;;;34.78;16.60;;;30.60;99.90;;;;;;5055575;28;20492;-72
2023/06/09 11:48:28;;;;;;;32.05;17.48;;;30.60;99.90;;;;;;5055414;28;20048;-71
2023/06/09 11:50:54;;;;;;;25.85;14.18;;;30.60;99.90;;;;;;5053811;28;20017;-71
2023/06/09 11:53:23;;;;;;;30.75;12.38;;;30.50;99.90;;;;;;5055551;28;20095;-70
2023/06/09 11:56:00;;;;;;;30.27;13.52;;;30.60;99.90;;;;;;5055558;28;20025;-71
2023/06/09 11:58:27;;;;;;;28.80;13.45;;;30.50;99.90;;;;;;5055425;28;20458;-71
2023/06/09 12:00:55;;;;;;;26.45;13.95;;;30.60;99.90;;;;;;5055263;28;20083;-71
2023/06/09 12:03:23;;;;;;;32.47;14.52;;;30.60;99.90;;;;;;5055188;28;20482;-71
2023/06/09 12:05:51;;;;;;;37.28;14.65;;;30.60;99.90;;;;;;5039338;28;20383;-69
2023/06/09 12:08:18;;;;;;;31.77;13.75;;;30.60;99.90;;;;;;5052845;28;20025;-70
2023/06/09 12:10:45;;;;;;;20.75;10.93;;;30.60;99.90;;;;;;5044477;28;20130;-70
2023/06/09 12:13:13;;;;;;;21.60;9.75;;;30.60;99.90;;;;;;5037006;28;20037;-69
2023/06/09 12:15:45;;;;;;;30.92;15.27;;;30.60;99.90;;;;;;5042875;28;20533;-70
2023/06/09 12:18:12;;;;;;;45.20;17.90;;;30.60;99.90;;;;;;5042585;28;20400;-67
2023/06/09 12:20:41;;;;;;;69.63;39.00;;;30.60;99.90;;;;;;5048092;28;20494;-71
2023/06/09 12:23:13;;;;;;;102.65;61.05;;;30.60;99.90;;;;;;5045822;28;20021;-70
2023/06/09 12:25:41;;;;;;;77.47;49.40;;;30.60;99.90;;;;;;5044189;28;20034;-69
2023/06/09 12:28:12;;;;;;;51.25;30.67;;;30.60;99.90;;;;;;5042526;28;20026;-70
2023/06/09 12:30:47;;;;;;;108.85;71.82;;;30.50;99.90;;;;;;5042921;28;20072;-70
2023/06/09 12:33:16;;;;;;;59.80;32.90;;;30.60;99.90;;;;;;5043874;28;20500;-69
2023/06/09 12:35:45;;;;;;;27.35;13.27;;;30.50;99.90;;;;;;5044647;28;20424;-68
2023/06/09 12:38:16;;;;;;;31.17;19.38;;;30.50;99.90;;;;;;5042671;28;20481;-65
2023/06/09 12:40:51;;;;;;;21.07;10.47;;;30.50;99.90;;;;;;5042728;28;20096;-70